Bloomfield Township, Michigan
Current Conditions -  °F | °C
As of 1:55 PM on Friday 24 Oct 2014 (Local Time) from KVLL Reporting Station
Overcast Overcast  
Wind Chill: 59°   Ceiling: 3800
Heat Index: 59°   Visibility: 10mi
Dew Point: 42°   Wind: 7mph
Humidity: 52%   Direction: 220°SW
Pressure: 30.04"   Gusts: NA
Location:  42.5858°N, 83.2941°W
Report Text: KVLL 241755Z AUTO 22006KT 10SM OVC038 15/06 A3004 RMK AO2 T01520055 10157 20040
Loading
Personal Weather Stations






























Interactive Weather Map New forecast layout! Learn more

10-Day Weather Forecast

Advertisements
Track Severe Weather on mobile